メインページ
METAR-TAF:

METAR-TAF

空港 :

トゥホ, ニューカレドニア

緯度: 20-47-25S, 経度: 165-15-34E, 海抜: 3m

METAR: 見つかりません

時間: 16:22 (05:22 UTC)

予報

当レポートは12時間22分前の17:00(UTC)に作成
予報は19日の 18時(UTC)から 20日の 18時(UTC)まで有効
変向風 2kt
視程10km以上
高度6000ftの雲は散在している
高度13000ftの千切れ雲あり
確率 40% :
19日の 18時(UTC)から 19日の 24時(UTC)まで一時的に
視程: 4000m
高度1400ftの千切れ雲あり
高度2000ftの雲はほとんどない, 塔状積雲.
にわか雨

TAF: NWWU 191700Z 1918/2018 VRB02KT 9999 SCT060 BKN130 PROB40 TEMPO 1918/1924 4000 SHRA BKN014 FEW020TCU

4,000以上の空港の気象観測と天気予報(METAR報とTAF報)

利用可能な観測所は地図上に黄色い丸と赤い丸で示す。

丸の上にカーソルを重ねると観測所名を参照できる。

次にクリックすると気象観測と天気予報を参照できる。

マップの切り替え:黒色「×」印の緑ボタンをクリックして拡大、「-」印の緑ボタンをクリックして縮小、緑色の三角印をクリックして隣りの地図に切り替え


METAR-TAF: